createdAt,value
2019-03-30T00:00:52.724Z,10.53
2019-03-30T00:03:24.598Z,10.75
2019-03-30T00:05:56.157Z,10.73
2019-03-30T00:08:27.998Z,10.64
2019-03-30T00:11:00.003Z,10.67
2019-03-30T00:13:31.528Z,10.74
2019-03-30T00:16:04.451Z,10.69
2019-03-30T00:18:41.218Z,10.67
2019-03-30T00:21:11.410Z,10.56
2019-03-30T00:23:43.099Z,10.50
2019-03-30T00:26:15.125Z,10.56
2019-03-30T00:28:57.745Z,10.55
2019-03-30T00:31:29.819Z,10.42
2019-03-30T00:34:01.422Z,10.40
2019-03-30T00:36:33.425Z,10.27
2019-03-30T00:39:08.066Z,10.22
2019-03-30T00:41:39.685Z,10.24
2019-03-30T00:44:11.198Z,10.25
2019-03-30T00:46:42.730Z,10.13
2019-03-30T00:49:14.231Z,10.23
2019-03-30T00:51:45.763Z,10.30
2019-03-30T00:54:17.287Z,10.28
2019-03-30T00:56:48.717Z,10.31
2019-03-30T00:59:20.224Z,10.16
2019-03-30T01:01:52.069Z,10.20
2019-03-30T01:04:23.531Z,10.14
2019-03-30T01:06:55.142Z,10.14
2019-03-30T01:09:26.635Z,10.12
2019-03-30T01:11:58.067Z,10.01
2019-03-30T01:14:29.578Z,10.06
2019-03-30T01:17:01.027Z,10.14
2019-03-30T01:19:32.479Z,10.11
2019-03-30T01:22:03.945Z,10.13
2019-03-30T01:24:35.350Z,10.07
2019-03-30T01:27:07.049Z,9.99
2019-03-30T01:29:38.491Z,9.93
2019-03-30T01:32:09.925Z,9.89
2019-03-30T01:34:41.489Z,9.60
2019-03-30T01:37:13.559Z,9.71
2019-03-30T01:39:45.212Z,9.78
2019-03-30T01:42:16.653Z,9.76
2019-03-30T01:44:48.172Z,9.78
2019-03-30T01:47:19.607Z,9.74
2019-03-30T01:49:51.055Z,9.83
2019-03-30T01:52:22.484Z,9.84
2019-03-30T01:54:54.016Z,9.78
2019-03-30T01:57:25.416Z,9.61
2019-03-30T01:59:56.842Z,9.42
2019-03-30T02:02:28.330Z,9.59
2019-03-30T02:04:59.748Z,9.51
2019-03-30T02:07:31.208Z,9.65
2019-03-30T02:10:02.717Z,9.55
2019-03-30T02:12:34.185Z,9.49
2019-03-30T02:15:07.300Z,9.48
2019-03-30T02:17:38.827Z,9.53
2019-03-30T02:20:30.213Z,9.35
2019-03-30T02:22:50.198Z,9.32
2019-03-30T02:25:21.788Z,9.33
2019-03-30T02:27:53.211Z,9.35
2019-03-30T02:30:24.650Z,9.14
2019-03-30T02:32:56.137Z,9.22
2019-03-30T02:35:27.563Z,9.24
2019-03-30T02:37:59.402Z,9.14
2019-03-30T02:40:31.526Z,9.27
2019-03-30T02:43:03.241Z,9.18
2019-03-30T02:45:34.719Z,9.21
2019-03-30T02:48:06.180Z,9.25
2019-03-30T02:50:49.374Z,9.32
2019-03-30T02:53:11.107Z,9.16
2019-03-30T02:55:42.599Z,9.14
2019-03-30T02:58:14.115Z,9.08
2019-03-30T03:00:46.008Z,9.10
2019-03-30T03:03:17.454Z,9.09
2019-03-30T03:05:48.867Z,9.10
2019-03-30T03:08:20.466Z,9.18
2019-03-30T03:10:51.940Z,9.32
2019-03-30T03:13:23.447Z,9.30
2019-03-30T03:15:55.155Z,9.23
2019-03-30T03:18:26.563Z,9.17
2019-03-30T03:21:07.536Z,9.15
2019-03-30T03:23:31.511Z,9.20
2019-03-30T03:26:03.424Z,9.15
2019-03-30T03:28:35.017Z,9.20
2019-03-30T03:31:06.489Z,9.22
2019-03-30T03:33:37.985Z,9.15
2019-03-30T03:36:09.451Z,9.21
2019-03-30T03:38:40.895Z,9.18
2019-03-30T03:41:12.437Z,9.21
2019-03-30T03:43:43.999Z,9.21
2019-03-30T03:46:15.531Z,9.32
2019-03-30T03:48:47.090Z,9.32
2019-03-30T03:51:26.131Z,9.36
2019-03-30T03:53:54.208Z,9.32
2019-03-30T03:56:28.699Z,9.35
2019-03-30T03:59:01.942Z,9.25
2019-03-30T04:01:36.583Z,9.26
2019-03-30T04:04:11.243Z,9.30
2019-03-30T04:06:45.761Z,9.32
2019-03-30T04:09:20.687Z,9.42
2019-03-30T04:11:55.370Z,9.53
2019-03-30T04:14:30.482Z,9.49
2019-03-30T04:17:02.053Z,9.53
2019-03-30T04:19:33.564Z,9.57
2019-03-30T04:22:05.011Z,9.51
2019-03-30T04:24:36.566Z,9.47
2019-03-30T04:27:08.011Z,9.60
2019-03-30T04:29:39.454Z,9.69
2019-03-30T04:32:10.964Z,9.64
2019-03-30T04:34:42.354Z,9.71
2019-03-30T04:37:13.774Z,9.72
2019-03-30T04:39:45.334Z,9.69
2019-03-30T04:42:16.786Z,9.60
2019-03-30T04:44:48.303Z,9.57
2019-03-30T04:47:19.744Z,9.59
2019-03-30T04:49:51.318Z,9.61
2019-03-30T04:52:22.793Z,9.59
2019-03-30T04:54:54.299Z,9.67
2019-03-30T04:57:25.738Z,9.68
2019-03-30T04:59:57.174Z,9.75
2019-03-30T05:02:28.602Z,9.67
2019-03-30T05:05:00.358Z,9.74
2019-03-30T05:07:32.275Z,9.71
2019-03-30T05:10:03.712Z,9.78
2019-03-30T05:12:35.117Z,9.84
2019-03-30T05:15:06.746Z,9.83
2019-03-30T05:17:47.641Z,9.79
2019-03-30T05:20:11.346Z,9.82
2019-03-30T05:22:42.791Z,9.90
2019-03-30T05:25:14.368Z,9.96
2019-03-30T05:27:46.174Z,10.04
2019-03-30T05:30:18.161Z,9.98
2019-03-30T05:32:49.612Z,10.01
2019-03-30T05:35:21.116Z,9.96
2019-03-30T05:37:52.652Z,10.06
2019-03-30T05:40:24.103Z,10.04
2019-03-30T05:42:55.707Z,10.05
2019-03-30T05:45:27.138Z,10.01
2019-03-30T05:47:58.548Z,9.98
2019-03-30T05:50:30.422Z,9.99
2019-03-30T05:53:01.873Z,10.12
2019-03-30T05:55:33.392Z,9.94
2019-03-30T05:58:04.887Z,10.01
2019-03-30T06:00:36.320Z,10.13
2019-03-30T06:03:07.774Z,10.07
2019-03-30T06:05:39.224Z,10.14
2019-03-30T06:08:10.675Z,10.35
2019-03-30T06:10:42.306Z,10.44
2019-03-30T06:13:13.788Z,10.48
2019-03-30T06:15:45.270Z,10.66
2019-03-30T06:18:16.716Z,11.32
2019-03-30T06:20:48.158Z,11.05
2019-03-30T06:23:19.582Z,11.11
2019-03-30T06:25:50.951Z,10.97
2019-03-30T06:28:22.470Z,10.98
2019-03-30T06:30:53.919Z,10.98
2019-03-30T06:33:25.801Z,11.10
2019-03-30T06:35:57.392Z,11.25
2019-03-30T06:38:29.222Z,11.45
2019-03-30T06:41:00.889Z,11.68
2019-03-30T06:43:32.469Z,11.72
2019-03-30T06:46:03.990Z,11.94
2019-03-30T06:48:36.234Z,12.52
2019-03-30T06:51:07.873Z,12.92
2019-03-30T06:53:39.475Z,12.63
2019-03-30T06:56:11.073Z,12.49
2019-03-30T06:58:43.174Z,12.75
2019-03-30T07:01:14.764Z,12.88
2019-03-30T07:03:46.390Z,12.89
2019-03-30T07:06:19.833Z,13.78
2019-03-30T07:08:55.063Z,16.04
2019-03-30T07:11:31.128Z,17.56
2019-03-30T07:14:05.592Z,17.70
2019-03-30T07:16:40.379Z,16.01
2019-03-30T07:19:12.536Z,15.06
2019-03-30T07:21:44.073Z,14.49
2019-03-30T07:24:15.567Z,14.19
2019-03-30T07:26:47.017Z,14.03
2019-03-30T07:29:18.477Z,14.20
2019-03-30T07:31:50.058Z,15.15
2019-03-30T07:34:21.517Z,16.36
2019-03-30T07:36:53.273Z,18.58
2019-03-30T07:39:24.762Z,17.17
2019-03-30T07:41:56.255Z,16.08
2019-03-30T07:44:27.849Z,15.67
2019-03-30T07:46:59.936Z,15.55
2019-03-30T07:49:31.503Z,17.78
2019-03-30T07:52:02.929Z,20.00
2019-03-30T07:54:34.518Z,20.54
2019-03-30T07:57:16.618Z,21.09
2019-03-30T07:59:39.151Z,21.62
2019-03-30T08:02:10.603Z,21.88
2019-03-30T08:04:42.107Z,19.95
2019-03-30T08:07:13.558Z,19.15
2019-03-30T08:09:45.919Z,20.21
2019-03-30T08:12:17.496Z,21.30
2019-03-30T08:14:49.026Z,20.71
2019-03-30T08:17:20.431Z,20.77
2019-03-30T08:19:51.861Z,20.63
2019-03-30T08:22:23.358Z,19.61
2019-03-30T08:24:54.804Z,19.91
2019-03-30T08:27:26.261Z,21.40
2019-03-30T08:29:57.717Z,21.23
2019-03-30T08:32:29.154Z,20.10
2019-03-30T08:35:00.621Z,19.36
2019-03-30T08:37:32.074Z,20.43
2019-03-30T08:40:03.695Z,21.93
2019-03-30T08:42:35.198Z,22.51
2019-03-30T08:45:08.800Z,21.08
2019-03-30T08:47:40.264Z,20.02
2019-03-30T08:50:12.606Z,19.56
2019-03-30T08:52:44.038Z,19.04
2019-03-30T08:55:15.978Z,19.04
2019-03-30T08:57:47.537Z,19.20
2019-03-30T09:00:36.464Z,19.56
2019-03-30T09:03:11.454Z,20.68
2019-03-30T09:05:43.485Z,21.24
2019-03-30T09:08:14.943Z,22.48
2019-03-30T09:10:46.381Z,23.67
2019-03-30T09:13:18.008Z,25.42
2019-03-30T09:15:49.710Z,24.75
2019-03-30T09:18:21.308Z,24.72
2019-03-30T09:20:53.743Z,24.69
2019-03-30T09:23:25.190Z,25.97
2019-03-30T09:25:56.650Z,27.99
2019-03-30T09:28:28.183Z,28.84
2019-03-30T09:30:59.655Z,29.49
2019-03-30T09:33:31.269Z,30.27
2019-03-30T09:36:02.760Z,30.31
2019-03-30T09:38:34.235Z,29.24
2019-03-30T09:41:06.135Z,29.43
2019-03-30T09:43:37.980Z,29.87
2019-03-30T09:46:09.934Z,30.81
2019-03-30T09:48:41.596Z,30.31
2019-03-30T09:51:13.185Z,31.04
2019-03-30T09:53:44.732Z,30.75
2019-03-30T09:56:16.983Z,31.07
2019-03-30T09:58:49.317Z,31.31
2019-03-30T10:01:21.224Z,32.09
2019-03-30T10:03:52.669Z,32.38
2019-03-30T10:06:33.793Z,33.07
2019-03-30T10:08:57.447Z,33.06
2019-03-30T10:11:28.874Z,33.25
2019-03-30T10:14:00.332Z,33.68
2019-03-30T10:16:31.760Z,33.83
2019-03-30T10:19:03.145Z,34.44
2019-03-30T10:21:34.701Z,33.19
2019-03-30T10:24:06.125Z,32.88
2019-03-30T10:26:37.528Z,32.67
2019-03-30T10:29:09.047Z,31.45
2019-03-30T10:31:40.626Z,29.83
2019-03-30T10:34:12.097Z,29.90
2019-03-30T10:36:44.508Z,30.03
2019-03-30T10:39:16.395Z,31.05
2019-03-30T10:41:48.137Z,32.09
2019-03-30T10:44:19.996Z,32.55
2019-03-30T10:46:52.063Z,32.91
2019-03-30T10:49:23.558Z,33.92
2019-03-30T10:51:55.194Z,34.37
2019-03-30T10:54:26.786Z,35.80
2019-03-30T10:56:58.257Z,35.26
2019-03-30T10:59:29.843Z,35.21
2019-03-30T11:02:01.263Z,34.09
2019-03-30T11:04:32.731Z,33.95
2019-03-30T11:07:04.499Z,34.97
2019-03-30T11:09:35.985Z,36.37
2019-03-30T11:12:07.423Z,36.13
2019-03-30T11:14:39.004Z,35.65
2019-03-30T11:17:10.812Z,34.78
2019-03-30T11:19:42.565Z,34.76
2019-03-30T11:22:15.098Z,34.59
2019-03-30T11:24:46.530Z,33.86
2019-03-30T11:27:18.261Z,34.98
2019-03-30T11:29:49.665Z,35.07
2019-03-30T11:32:21.141Z,35.79
2019-03-30T11:34:52.722Z,35.29
2019-03-30T11:37:24.301Z,34.85
2019-03-30T11:39:55.711Z,35.22
2019-03-30T11:42:27.267Z,36.12
2019-03-30T11:44:58.747Z,35.98
2019-03-30T11:47:30.606Z,35.92
2019-03-30T11:50:02.065Z,35.58
2019-03-30T11:52:33.564Z,36.41
2019-03-30T11:55:05.359Z,37.34
2019-03-30T11:57:36.884Z,35.95
2019-03-30T12:00:08.491Z,35.94
2019-03-30T12:02:40.171Z,35.92
2019-03-30T12:05:11.760Z,36.32
2019-03-30T12:07:43.208Z,37.03
2019-03-30T12:10:15.952Z,37.88
2019-03-30T12:12:47.574Z,37.49
2019-03-30T12:15:19.154Z,37.06
2019-03-30T12:17:50.549Z,36.07
2019-03-30T12:20:21.983Z,34.97
2019-03-30T12:22:53.456Z,36.23
2019-03-30T12:25:35.351Z,37.40
2019-03-30T12:27:58.124Z,37.55
2019-03-30T12:30:29.713Z,37.44
2019-03-30T12:33:01.136Z,38.77
2019-03-30T12:35:32.595Z,38.05
2019-03-30T12:38:04.202Z,37.01
2019-03-30T12:40:35.650Z,36.43
2019-03-30T12:43:07.562Z,35.97
2019-03-30T12:45:39.123Z,36.88
2019-03-30T12:48:10.719Z,37.49
2019-03-30T12:50:42.230Z,36.34
2019-03-30T12:53:13.748Z,35.12
2019-03-30T12:55:49.410Z,35.26
2019-03-30T12:58:18.377Z,35.36
2019-03-30T13:00:50.698Z,35.06
2019-03-30T13:03:22.184Z,34.74
2019-03-30T13:05:53.654Z,35.44
2019-03-30T13:08:25.058Z,35.39
2019-03-30T13:10:56.596Z,35.03
2019-03-30T13:13:28.447Z,35.49
2019-03-30T13:15:59.954Z,34.80
2019-03-30T13:18:32.237Z,34.07
2019-03-30T13:21:03.661Z,34.49
2019-03-30T13:23:35.077Z,34.32
2019-03-30T13:26:06.664Z,33.83
2019-03-30T13:28:38.327Z,34.74
2019-03-30T13:31:09.813Z,33.95
2019-03-30T13:33:41.305Z,33.38
2019-03-30T13:36:13.785Z,32.48
2019-03-30T13:38:45.236Z,32.43
2019-03-30T13:41:16.632Z,34.36
2019-03-30T13:43:48.139Z,34.05
2019-03-30T13:46:19.590Z,33.64
2019-03-30T13:48:51.192Z,34.31
2019-03-30T13:51:22.733Z,33.27
2019-03-30T13:53:54.252Z,33.34
2019-03-30T13:56:25.688Z,33.01
2019-03-30T13:58:57.180Z,32.74
2019-03-30T14:01:28.586Z,32.24
2019-03-30T14:04:00.147Z,32.02
2019-03-30T14:06:31.570Z,31.52
2019-03-30T14:09:04.405Z,31.42
2019-03-30T14:11:35.886Z,31.69
2019-03-30T14:14:07.459Z,31.86
2019-03-30T14:16:38.992Z,32.25
2019-03-30T14:19:10.527Z,32.32
2019-03-30T14:21:41.938Z,31.42
2019-03-30T14:24:13.390Z,31.15
2019-03-30T14:26:45.141Z,31.24
2019-03-30T14:29:17.016Z,31.60
2019-03-30T14:31:48.433Z,31.37
2019-03-30T14:34:20.162Z,31.36
2019-03-30T14:36:51.554Z,31.16
2019-03-30T14:39:22.983Z,30.46
2019-03-30T14:41:54.390Z,30.81
2019-03-30T14:44:27.567Z,30.31
2019-03-30T14:46:59.134Z,29.17
2019-03-30T14:49:30.585Z,29.56
2019-03-30T14:52:02.135Z,29.27
2019-03-30T14:54:33.798Z,28.89
2019-03-30T14:57:05.331Z,29.06
2019-03-30T14:59:36.730Z,29.46
2019-03-30T15:02:08.203Z,28.89
2019-03-30T15:04:40.041Z,28.49
2019-03-30T15:07:11.446Z,28.53
2019-03-30T15:09:42.861Z,27.85
2019-03-30T15:12:17.313Z,27.31
2019-03-30T15:14:49.044Z,26.92
2019-03-30T15:17:20.888Z,26.64
2019-03-30T15:19:52.633Z,26.46
2019-03-30T15:22:24.283Z,26.18
2019-03-30T15:24:55.714Z,25.56
2019-03-30T15:27:27.396Z,25.97
2019-03-30T15:29:58.931Z,26.01
2019-03-30T15:32:30.486Z,25.86
2019-03-30T15:35:02.018Z,26.02
2019-03-30T15:37:33.928Z,25.49
2019-03-30T15:40:05.594Z,25.08
2019-03-30T15:42:40.074Z,24.90
2019-03-30T15:45:12.653Z,24.73
2019-03-30T15:47:44.261Z,24.45
2019-03-30T15:50:16.077Z,23.91
2019-03-30T15:52:47.563Z,23.73
2019-03-30T15:55:19.344Z,23.32
2019-03-30T15:57:50.751Z,23.06
2019-03-30T16:00:22.304Z,22.81
2019-03-30T16:02:53.725Z,22.70
2019-03-30T16:05:25.220Z,22.62
2019-03-30T16:07:57.217Z,22.39
2019-03-30T16:10:28.802Z,22.27
2019-03-30T16:13:00.388Z,22.22
2019-03-30T16:15:32.365Z,22.02
2019-03-30T16:18:03.888Z,21.88
2019-03-30T16:20:35.684Z,21.55
2019-03-30T16:23:07.570Z,21.62
2019-03-30T16:25:39.074Z,21.33
2019-03-30T16:28:10.522Z,21.06
2019-03-30T16:30:42.179Z,20.86
2019-03-30T16:33:13.619Z,21.16
2019-03-30T16:35:45.062Z,21.13
2019-03-30T16:38:17.176Z,20.99
2019-03-30T16:40:48.859Z,20.73
2019-03-30T16:43:20.617Z,20.43
2019-03-30T16:45:52.207Z,20.47
2019-03-30T16:48:23.724Z,20.34
2019-03-30T16:50:55.491Z,20.19
2019-03-30T16:53:28.680Z,19.99
2019-03-30T16:56:00.146Z,20.02
2019-03-30T16:58:31.659Z,19.95
2019-03-30T17:01:03.394Z,19.74
2019-03-30T17:03:34.950Z,19.46
2019-03-30T17:06:06.444Z,19.52
2019-03-30T17:08:37.974Z,19.50
2019-03-30T17:11:09.580Z,19.28
2019-03-30T17:13:41.030Z,19.23
2019-03-30T17:16:12.706Z,19.27
2019-03-30T17:18:44.263Z,18.89
2019-03-30T17:21:15.890Z,18.69
2019-03-30T17:23:47.362Z,18.72
2019-03-30T17:26:18.741Z,18.65
2019-03-30T17:28:50.755Z,18.80
2019-03-30T17:31:22.216Z,18.94
2019-03-30T17:33:53.728Z,18.80
2019-03-30T17:36:25.611Z,18.67
2019-03-30T17:38:57.107Z,18.47
2019-03-30T17:41:28.580Z,18.40
2019-03-30T17:44:00.332Z,18.40
2019-03-30T17:46:32.224Z,18.17
2019-03-30T17:49:03.755Z,17.99
2019-03-30T17:51:35.245Z,18.04
2019-03-30T17:54:06.665Z,17.97
2019-03-30T17:56:38.069Z,17.98
2019-03-30T17:59:09.744Z,17.90
2019-03-30T18:01:41.173Z,17.90
2019-03-30T18:04:12.590Z,17.69
2019-03-30T18:06:44.667Z,17.62
2019-03-30T18:09:16.155Z,17.55
2019-03-30T18:11:48.648Z,17.53
2019-03-30T18:14:20.467Z,17.39
2019-03-30T18:16:51.955Z,17.29
2019-03-30T18:19:23.404Z,17.26
2019-03-30T18:21:54.824Z,17.20
2019-03-30T18:24:27.913Z,17.36
2019-03-30T18:26:59.455Z,17.28
2019-03-30T18:29:31.087Z,17.18
2019-03-30T18:32:03.974Z,17.02
2019-03-30T18:34:46.698Z,17.20
2019-03-30T18:37:18.840Z,17.39
2019-03-30T18:39:50.451Z,17.17
2019-03-30T18:42:21.917Z,16.94
2019-03-30T18:44:57.623Z,16.78
2019-03-30T18:47:29.161Z,16.49
2019-03-30T18:50:00.646Z,16.52
2019-03-30T18:52:32.662Z,16.27
2019-03-30T18:55:04.326Z,16.15
2019-03-30T18:57:36.031Z,16.16
2019-03-30T19:00:15.409Z,16.19
2019-03-30T19:02:46.950Z,16.18
2019-03-30T19:05:18.663Z,15.88
2019-03-30T19:07:50.131Z,15.96
2019-03-30T19:10:21.746Z,15.81
2019-03-30T19:12:53.192Z,15.65
2019-03-30T19:15:24.687Z,15.51
2019-03-30T19:17:56.245Z,15.42
2019-03-30T19:20:27.906Z,15.32
2019-03-30T19:22:59.566Z,15.30
2019-03-30T19:25:31.073Z,15.32
2019-03-30T19:28:02.689Z,15.25
2019-03-30T19:30:34.297Z,15.17
2019-03-30T19:33:05.759Z,15.31
2019-03-30T19:35:37.341Z,15.30
2019-03-30T19:38:10.902Z,15.32
2019-03-30T19:40:42.083Z,15.16
2019-03-30T19:43:13.846Z,15.07
2019-03-30T19:45:45.448Z,15.06
2019-03-30T19:48:17.001Z,15.00
2019-03-30T19:50:48.476Z,14.88
2019-03-30T19:53:20.153Z,14.79
2019-03-30T19:55:51.645Z,14.88
2019-03-30T19:58:23.076Z,14.97
2019-03-30T20:00:54.494Z,14.75
2019-03-30T20:03:26.139Z,14.78
2019-03-30T20:05:57.547Z,14.62
2019-03-30T20:08:28.962Z,14.58
2019-03-30T20:11:00.492Z,14.54
2019-03-30T20:13:32.016Z,14.65
2019-03-30T20:16:03.686Z,14.49
2019-03-30T20:18:35.195Z,14.49
2019-03-30T20:21:06.646Z,14.58
2019-03-30T20:23:38.209Z,14.56
2019-03-30T20:26:09.635Z,14.49
2019-03-30T20:28:41.047Z,14.52
2019-03-30T20:31:12.578Z,14.53
2019-03-30T20:33:44.548Z,14.47
2019-03-30T20:36:16.204Z,14.49
2019-03-30T20:38:48.170Z,14.36
2019-03-30T20:41:19.874Z,14.30
2019-03-30T20:43:51.672Z,14.17
2019-03-30T20:46:26.304Z,14.24
2019-03-30T20:49:05.867Z,14.12
2019-03-30T20:51:37.462Z,14.17
2019-03-30T20:54:12.177Z,14.10
2019-03-30T20:56:46.122Z,14.12
2019-03-30T20:59:18.380Z,13.79
2019-03-30T21:01:53.906Z,13.63
2019-03-30T21:04:25.714Z,13.53
2019-03-30T21:06:57.812Z,13.43
2019-03-30T21:09:36.048Z,13.32
2019-03-30T21:12:14.794Z,13.25
2019-03-30T21:14:53.336Z,13.00
2019-03-30T21:17:27.307Z,12.85
2019-03-30T21:19:59.317Z,12.90
2019-03-30T21:22:30.956Z,12.89
2019-03-30T21:25:02.671Z,12.90
2019-03-30T21:27:34.279Z,12.79
2019-03-30T21:30:07.842Z,12.79
2019-03-30T21:32:39.586Z,12.53
2019-03-30T21:35:11.323Z,12.61
2019-03-30T21:37:42.862Z,12.50
2019-03-30T21:40:14.530Z,12.53
2019-03-30T21:42:46.097Z,12.50
2019-03-30T21:45:17.723Z,12.35
2019-03-30T21:47:49.305Z,12.22
2019-03-30T21:50:20.934Z,12.25
2019-03-30T21:52:52.586Z,12.26
2019-03-30T21:55:24.153Z,12.23
2019-03-30T21:57:55.715Z,12.19
2019-03-30T22:00:37.798Z,12.18
2019-03-30T22:03:09.460Z,12.13
2019-03-30T22:05:41.767Z,12.25
2019-03-30T22:08:16.941Z,12.30
2019-03-30T22:10:49.211Z,12.14
2019-03-30T22:13:22.206Z,12.19
2019-03-30T22:15:54.628Z,12.13
2019-03-30T22:18:26.310Z,11.99
2019-03-30T22:20:57.861Z,12.10
2019-03-30T22:23:29.408Z,12.12
2019-03-30T22:26:00.869Z,12.17
2019-03-30T22:28:32.371Z,11.94
2019-03-30T22:31:03.814Z,11.94
2019-03-30T22:33:35.254Z,11.87
2019-03-30T22:36:07.121Z,11.84
2019-03-30T22:38:38.563Z,11.89
2019-03-30T22:41:10.062Z,11.79
2019-03-30T22:43:41.549Z,11.66
2019-03-30T22:48:56.596Z,11.54
2019-03-30T22:51:28.034Z,11.57
2019-03-30T22:56:35.927Z,11.34
2019-03-30T22:59:10.500Z,11.45
2019-03-30T23:01:42.379Z,11.17
2019-03-30T23:09:50.233Z,11.32
2019-03-30T23:12:21.650Z,10.89
2019-03-30T23:14:54.435Z,10.88
2019-03-30T23:17:27.853Z,10.88
2019-03-30T23:20:01.989Z,10.94
2019-03-30T23:22:33.813Z,10.64
2019-03-30T23:25:06.795Z,10.69
2019-03-30T23:27:38.559Z,10.58
2019-03-30T23:30:10.846Z,10.62
2019-03-30T23:32:45.027Z,10.59
2019-03-30T23:35:17.956Z,10.65
2019-03-30T23:37:49.651Z,10.55
2019-03-30T23:40:21.239Z,10.59
2019-03-30T23:42:54.948Z,10.60
2019-03-30T23:45:26.583Z,10.66
2019-03-30T23:47:58.102Z,10.59
2019-03-30T23:50:31.120Z,10.59
2019-03-30T23:53:07.252Z,10.49
2019-03-30T23:55:38.514Z,10.43
2019-03-30T23:58:10.114Z,10.36
